createdAt,value
2023-05-05T00:01:48.232Z,76.82
2023-05-05T00:04:17.962Z,76.77
2023-05-05T00:06:46.424Z,76.68
2023-05-05T00:09:14.395Z,76.74
2023-05-05T00:11:42.279Z,76.93
2023-05-05T00:14:11.169Z,77.20
2023-05-05T00:16:39.072Z,77.24
2023-05-05T00:19:06.919Z,77.14
2023-05-05T00:21:34.766Z,77.20
2023-05-05T00:24:02.812Z,77.61
2023-05-05T00:26:31.035Z,78.02
2023-05-05T00:28:58.787Z,78.27
2023-05-05T00:31:27.082Z,78.53
2023-05-05T00:33:55.032Z,78.30
2023-05-05T00:36:23.020Z,78.46
2023-05-05T00:38:50.814Z,78.98
2023-05-05T00:41:18.579Z,79.06
2023-05-05T00:43:46.358Z,79.06
2023-05-05T00:46:26.594Z,78.90
2023-05-05T00:48:55.295Z,78.69
2023-05-05T00:51:25.700Z,78.64
2023-05-05T00:53:53.724Z,78.51
2023-05-05T00:56:22.275Z,78.41
2023-05-05T00:58:50.290Z,78.45
2023-05-05T01:01:18.648Z,78.07
2023-05-05T01:03:46.606Z,78.44
2023-05-05T01:06:36.600Z,78.33
2023-05-05T01:09:19.992Z,78.58
2023-05-05T01:12:21.641Z,78.39
2023-05-05T01:15:11.086Z,77.94
2023-05-05T01:17:44.931Z,77.96
2023-05-05T01:20:26.148Z,77.82
2023-05-05T01:23:01.277Z,77.95
2023-05-05T01:25:47.829Z,77.56
2023-05-05T01:28:31.433Z,77.47
2023-05-05T01:31:23.952Z,77.76
2023-05-05T01:34:07.612Z,77.83
2023-05-05T01:36:42.347Z,78.07
2023-05-05T01:39:16.141Z,78.50
2023-05-05T01:41:48.065Z,78.18
2023-05-05T01:44:17.011Z,78.20
2023-05-05T01:46:44.776Z,78.24
2023-05-05T01:49:15.101Z,78.23
2023-05-05T01:51:45.985Z,78.69
2023-05-05T01:54:15.330Z,79.06
2023-05-05T01:56:43.657Z,79.23
2023-05-05T01:59:12.380Z,79.60
2023-05-05T02:01:41.864Z,79.49
2023-05-05T02:04:13.164Z,79.48
2023-05-05T02:06:43.133Z,79.54
2023-05-05T02:09:12.850Z,79.40
2023-05-05T02:11:41.402Z,79.35
2023-05-05T02:14:10.745Z,79.14
2023-05-05T02:16:41.463Z,79.03
2023-05-05T02:19:12.174Z,78.75
2023-05-05T02:21:41.197Z,79.14
2023-05-05T02:24:09.182Z,79.53
2023-05-05T02:26:40.644Z,79.79
2023-05-05T02:29:17.912Z,79.70
2023-05-05T02:31:49.985Z,79.72
2023-05-05T02:34:22.657Z,79.76
2023-05-05T02:36:54.538Z,80.00
2023-05-05T02:39:30.715Z,80.18
2023-05-05T02:42:03.410Z,80.04
2023-05-05T02:44:34.644Z,79.70
2023-05-05T02:47:04.922Z,79.87
2023-05-05T02:49:32.646Z,79.87
2023-05-05T02:52:01.108Z,79.78
2023-05-05T02:54:33.324Z,79.69
2023-05-05T02:57:01.960Z,79.22
2023-05-05T02:59:53.166Z,78.81
2023-05-05T03:02:59.889Z,79.16
2023-05-05T03:05:38.254Z,79.40
2023-05-05T03:08:14.093Z,79.28
2023-05-05T03:10:52.492Z,79.46
2023-05-05T03:13:22.673Z,79.57
2023-05-05T03:15:53.448Z,79.67
2023-05-05T03:18:24.177Z,79.94
2023-05-05T03:20:52.570Z,80.33
2023-05-05T03:23:22.743Z,80.20
2023-05-05T03:25:50.696Z,80.47
2023-05-05T03:28:18.608Z,80.58
2023-05-05T03:30:46.580Z,80.76
2023-05-05T03:33:16.573Z,80.98
2023-05-05T03:35:44.372Z,81.23
2023-05-05T03:38:12.302Z,81.52
2023-05-05T03:40:44.138Z,81.34
2023-05-05T03:43:13.042Z,81.32
2023-05-05T03:45:40.893Z,81.29
2023-05-05T03:48:09.987Z,81.14
2023-05-05T03:50:37.894Z,81.27
2023-05-05T03:53:05.811Z,81.36
2023-05-05T03:55:33.711Z,81.32
2023-05-05T03:58:01.518Z,80.96
2023-05-05T04:00:29.350Z,80.70
2023-05-05T04:02:57.526Z,80.60
2023-05-05T04:05:26.427Z,80.96
2023-05-05T04:07:54.345Z,81.06
2023-05-05T04:10:22.119Z,80.63
2023-05-05T04:12:50.000Z,80.37
2023-05-05T04:15:18.758Z,80.18
2023-05-05T04:17:46.719Z,80.13
2023-05-05T04:20:15.201Z,80.39
2023-05-05T04:22:43.265Z,80.61
2023-05-05T04:25:11.345Z,80.26
2023-05-05T04:27:39.970Z,79.91
2023-05-05T04:30:09.691Z,79.84
2023-05-05T04:32:37.589Z,79.83
2023-05-05T04:35:06.139Z,80.32
2023-05-05T04:37:34.029Z,80.27
2023-05-05T04:40:02.058Z,80.19
2023-05-05T04:42:30.624Z,80.31
2023-05-05T04:44:58.365Z,80.44
2023-05-05T04:47:26.260Z,80.30
2023-05-05T04:49:57.329Z,80.12
2023-05-05T04:52:25.731Z,80.22
2023-05-05T04:54:53.615Z,80.02
2023-05-05T04:57:21.830Z,80.04
2023-05-05T04:59:49.710Z,79.88
2023-05-05T05:02:17.628Z,79.94
2023-05-05T05:04:45.431Z,80.24
2023-05-05T05:07:15.160Z,80.34
2023-05-05T05:09:43.164Z,80.29
2023-05-05T05:12:11.192Z,80.81
2023-05-05T05:14:40.070Z,80.66
2023-05-05T05:17:07.975Z,80.20
2023-05-05T05:19:35.884Z,79.74
2023-05-05T05:22:03.874Z,79.57
2023-05-05T05:24:31.816Z,79.70
2023-05-05T05:26:59.739Z,79.23
2023-05-05T05:29:27.667Z,78.88
2023-05-05T05:31:55.961Z,78.34
2023-05-05T05:34:24.229Z,78.28
2023-05-05T05:36:52.311Z,77.81
2023-05-05T05:39:20.121Z,77.44
2023-05-05T05:41:47.963Z,77.23
2023-05-05T05:44:15.898Z,77.34
2023-05-05T05:46:43.917Z,77.26
2023-05-05T05:49:12.064Z,77.07
2023-05-05T05:51:39.910Z,76.59
2023-05-05T05:54:07.880Z,76.22
2023-05-05T05:56:35.751Z,76.08
2023-05-05T05:59:04.901Z,76.01
2023-05-05T06:01:33.039Z,75.83
2023-05-05T06:04:01.552Z,75.37
2023-05-05T06:06:29.811Z,75.55
2023-05-05T06:08:57.607Z,75.70
2023-05-05T06:11:27.848Z,76.05
2023-05-05T06:13:55.819Z,76.32
2023-05-05T06:16:23.716Z,76.12
2023-05-05T06:18:51.768Z,75.75
2023-05-05T06:21:22.681Z,75.02
2023-05-05T06:23:51.066Z,75.05
2023-05-05T06:26:18.944Z,75.00
2023-05-05T06:28:46.827Z,75.06
2023-05-05T06:31:14.890Z,74.55
2023-05-05T06:33:42.936Z,73.78
2023-05-05T06:36:13.095Z,72.81
2023-05-05T06:38:41.404Z,72.76
2023-05-05T06:41:09.187Z,72.66
2023-05-05T06:43:37.002Z,72.37
2023-05-05T06:46:05.050Z,72.56
2023-05-05T06:48:32.908Z,72.05
2023-05-05T06:51:00.755Z,71.56
2023-05-05T06:53:28.660Z,70.95
2023-05-05T06:55:56.651Z,71.03
2023-05-05T06:58:24.736Z,71.04
2023-05-05T07:00:52.627Z,70.62
2023-05-05T07:03:20.870Z,70.44
2023-05-05T07:05:48.712Z,70.11
2023-05-05T07:08:16.441Z,69.25
2023-05-05T07:10:44.349Z,69.21
2023-05-05T07:13:13.720Z,69.72
2023-05-05T07:15:46.841Z,69.85
2023-05-05T07:18:16.188Z,69.25
2023-05-05T07:20:44.579Z,69.05
2023-05-05T07:23:12.940Z,68.87
2023-05-05T07:25:40.976Z,68.05
2023-05-05T07:28:08.883Z,68.02
2023-05-05T07:30:36.794Z,68.10
2023-05-05T07:33:04.827Z,68.19
2023-05-05T07:35:32.961Z,67.70
2023-05-05T07:38:01.008Z,66.50
2023-05-05T07:40:29.086Z,66.69
2023-05-05T07:42:57.049Z,67.03
2023-05-05T07:45:24.974Z,66.63
2023-05-05T07:47:52.909Z,65.26
2023-05-05T07:50:21.051Z,64.71
2023-05-05T07:52:54.021Z,64.29
2023-05-05T07:55:30.080Z,63.84
2023-05-05T07:57:57.823Z,63.71
2023-05-05T08:00:25.824Z,63.20
2023-05-05T08:02:55.616Z,62.34
2023-05-05T08:05:23.619Z,61.47
2023-05-05T08:07:51.533Z,61.26
2023-05-05T08:10:22.024Z,60.56
2023-05-05T08:12:49.939Z,59.70
2023-05-05T08:15:17.918Z,59.73
2023-05-05T08:17:51.571Z,57.33
2023-05-05T08:20:20.705Z,57.28
2023-05-05T08:22:51.752Z,57.86
2023-05-05T08:25:19.715Z,57.54
2023-05-05T08:27:47.695Z,56.50
2023-05-05T08:30:17.410Z,55.19
2023-05-05T08:32:45.385Z,54.98
2023-05-05T08:35:13.535Z,55.16
2023-05-05T08:37:43.725Z,53.84
2023-05-05T08:40:15.936Z,54.10
2023-05-05T08:42:45.789Z,52.62
2023-05-05T08:45:13.723Z,51.54
2023-05-05T08:47:43.539Z,50.83
2023-05-05T08:50:11.943Z,49.61
2023-05-05T08:52:44.799Z,48.28
2023-05-05T08:55:14.842Z,49.08
2023-05-05T08:57:48.350Z,49.78
2023-05-05T09:00:19.793Z,50.16
2023-05-05T09:02:48.215Z,50.21
2023-05-05T09:05:16.900Z,49.35
2023-05-05T09:07:45.279Z,47.64
2023-05-05T09:10:13.263Z,47.85
2023-05-05T09:12:41.744Z,48.58
2023-05-05T09:15:11.714Z,48.28
2023-05-05T09:17:40.740Z,47.69
2023-05-05T09:20:11.201Z,46.22
2023-05-05T09:22:41.361Z,46.96
2023-05-05T09:25:12.136Z,47.67
2023-05-05T09:27:46.465Z,46.64
2023-05-05T09:30:23.678Z,45.41
2023-05-05T09:32:55.568Z,46.31
2023-05-05T09:35:23.750Z,44.55
2023-05-05T09:37:51.608Z,44.96
2023-05-05T09:40:20.726Z,45.95
2023-05-05T09:42:48.626Z,45.08
2023-05-05T09:45:19.384Z,44.45
2023-05-05T09:47:48.256Z,44.86
2023-05-05T09:50:20.517Z,44.00
2023-05-05T09:52:56.639Z,43.38
2023-05-05T09:55:25.404Z,43.16
2023-05-05T09:57:53.301Z,42.95
2023-05-05T10:00:21.306Z,43.64
2023-05-05T10:02:49.218Z,43.75
2023-05-05T10:05:18.675Z,43.92
2023-05-05T10:07:48.170Z,44.02
2023-05-05T10:10:17.835Z,44.67
2023-05-05T10:12:47.619Z,45.24
2023-05-05T10:15:16.718Z,45.00
2023-05-05T10:20:21.876Z,42.94
2023-05-05T10:22:53.633Z,42.67
2023-05-05T10:25:30.772Z,41.88
2023-05-05T10:28:06.485Z,39.75
2023-05-05T10:30:43.321Z,40.54
2023-05-05T10:33:31.718Z,40.91
2023-05-05T10:36:02.955Z,39.92
2023-05-05T10:38:31.951Z,39.88
2023-05-05T10:41:02.014Z,41.05
2023-05-05T10:43:31.469Z,41.05
2023-05-05T10:46:00.701Z,40.86
2023-05-05T10:48:46.163Z,40.20
2023-05-05T10:51:51.326Z,39.02
2023-05-05T10:54:30.589Z,38.33
2023-05-05T10:57:02.643Z,37.90
2023-05-05T10:59:36.834Z,36.41
2023-05-05T11:02:29.673Z,36.40
2023-05-05T11:05:13.612Z,35.48
2023-05-05T11:07:42.681Z,36.13
2023-05-05T11:10:12.509Z,36.27
2023-05-05T11:12:57.853Z,36.45
2023-05-05T11:15:29.252Z,36.74
2023-05-05T11:18:05.714Z,36.86
2023-05-05T11:20:41.099Z,37.67
2023-05-05T11:23:08.902Z,37.67
2023-05-05T11:25:37.183Z,37.84
2023-05-05T11:28:11.317Z,38.12
2023-05-05T11:30:58.491Z,38.57
2023-05-05T11:33:29.212Z,38.33
2023-05-05T11:36:04.267Z,37.94
2023-05-05T11:39:09.425Z,36.53
2023-05-05T11:41:40.341Z,36.50
2023-05-05T11:44:15.772Z,36.59
2023-05-05T11:46:43.663Z,36.70
2023-05-05T11:49:11.654Z,36.42
2023-05-05T11:51:40.176Z,35.47
2023-05-05T11:54:08.261Z,34.84
2023-05-05T11:56:36.314Z,34.54
2023-05-05T11:59:10.667Z,33.91
2023-05-05T12:01:41.858Z,34.09
2023-05-05T12:04:13.752Z,32.63
2023-05-05T12:06:42.216Z,32.54
2023-05-05T12:09:16.993Z,33.45
2023-05-05T12:11:52.621Z,33.88
2023-05-05T12:14:21.508Z,33.32
2023-05-05T12:17:16.609Z,32.84
2023-05-05T12:19:54.552Z,33.46
2023-05-05T12:22:27.407Z,33.96
2023-05-05T12:24:58.374Z,33.89
2023-05-05T12:27:27.794Z,34.05
2023-05-05T12:29:57.482Z,34.59
2023-05-05T12:32:27.941Z,35.14
2023-05-05T12:34:59.600Z,35.10
2023-05-05T12:37:27.740Z,35.56
2023-05-05T12:39:55.733Z,35.75
2023-05-05T12:42:23.611Z,35.54
2023-05-05T12:44:52.238Z,35.13
2023-05-05T12:47:33.312Z,34.95
2023-05-05T12:50:03.162Z,35.20
2023-05-05T12:52:44.783Z,34.81
2023-05-05T12:55:13.336Z,34.78
2023-05-05T12:58:04.694Z,35.53
2023-05-05T13:00:32.623Z,35.22
2023-05-05T13:03:00.491Z,35.57
2023-05-05T13:05:32.687Z,36.03
2023-05-05T13:08:00.664Z,36.71
2023-05-05T13:10:28.628Z,36.35
2023-05-05T13:12:56.923Z,35.65
2023-05-05T13:15:25.930Z,36.40
2023-05-05T13:18:03.203Z,36.59
2023-05-05T13:20:31.221Z,36.64
2023-05-05T13:22:59.205Z,36.81
2023-05-05T13:25:27.155Z,36.59
2023-05-05T13:27:54.914Z,36.59
2023-05-05T13:30:22.881Z,36.04
2023-05-05T13:32:50.911Z,35.92
2023-05-05T13:35:18.819Z,36.65
2023-05-05T13:37:47.545Z,37.12
2023-05-05T13:40:15.557Z,37.10
2023-05-05T13:42:44.108Z,36.72
2023-05-05T13:45:12.360Z,36.11
2023-05-05T13:47:42.080Z,35.94
2023-05-05T13:50:10.269Z,35.70
2023-05-05T13:52:38.615Z,35.87
2023-05-05T13:55:07.322Z,35.65
2023-05-05T13:57:35.440Z,35.76
2023-05-05T14:00:04.440Z,35.58
2023-05-05T14:02:32.308Z,35.51
2023-05-05T14:05:00.170Z,36.00
2023-05-05T14:07:28.134Z,36.03
2023-05-05T14:09:56.004Z,35.40
2023-05-05T14:12:23.979Z,35.01
2023-05-05T14:14:51.846Z,35.10
2023-05-05T14:17:19.869Z,35.50
2023-05-05T14:19:47.868Z,35.28
2023-05-05T14:22:15.679Z,35.57
2023-05-05T14:24:43.601Z,35.61
2023-05-05T14:27:11.500Z,35.76
2023-05-05T14:29:39.470Z,35.58
2023-05-05T14:32:07.351Z,35.33
2023-05-05T14:34:35.337Z,35.46
2023-05-05T14:37:03.426Z,35.66
2023-05-05T14:39:31.408Z,35.43
2023-05-05T14:41:59.343Z,35.39
2023-05-05T14:44:27.291Z,35.14
2023-05-05T14:46:55.131Z,34.98
2023-05-05T14:49:22.975Z,35.13
2023-05-05T14:51:51.693Z,35.06
2023-05-05T14:54:27.995Z,35.53
2023-05-05T14:56:56.829Z,35.00
2023-05-05T14:59:24.734Z,34.97
2023-05-05T15:01:52.924Z,35.27
2023-05-05T15:04:20.883Z,35.75
2023-05-05T15:06:48.716Z,35.75
2023-05-05T15:09:18.250Z,35.67
2023-05-05T15:11:46.160Z,35.71
2023-05-05T15:14:14.008Z,35.94
2023-05-05T15:16:41.974Z,35.98
2023-05-05T15:19:09.828Z,35.94
2023-05-05T15:21:37.685Z,35.69
2023-05-05T15:24:05.937Z,35.67
2023-05-05T15:26:33.855Z,35.41
2023-05-05T15:29:01.654Z,35.15
2023-05-05T15:31:29.616Z,34.13
2023-05-05T15:33:57.508Z,32.88
2023-05-05T15:36:25.542Z,31.85
2023-05-05T15:38:53.473Z,30.66
2023-05-05T15:41:21.456Z,30.16
2023-05-05T15:43:51.770Z,29.50
2023-05-05T15:46:19.675Z,28.59
2023-05-05T15:48:47.576Z,28.80
2023-05-05T15:51:16.299Z,29.54
2023-05-05T15:53:44.239Z,29.90
2023-05-05T15:56:13.325Z,30.26
2023-05-05T15:58:41.184Z,30.81
2023-05-05T16:01:09.282Z,31.17
2023-05-05T16:03:37.244Z,31.77
2023-05-05T16:06:05.169Z,31.36
2023-05-05T16:08:33.148Z,31.17
2023-05-05T16:11:01.417Z,32.24
2023-05-05T16:13:29.407Z,32.93
2023-05-05T16:15:57.423Z,33.00
2023-05-05T16:18:25.385Z,33.51
2023-05-05T16:20:53.880Z,33.81
2023-05-05T16:23:21.683Z,33.71
2023-05-05T16:25:49.636Z,33.06
2023-05-05T16:28:18.573Z,32.53
2023-05-05T16:30:46.403Z,32.50
2023-05-05T16:33:14.346Z,32.75
2023-05-05T16:35:46.214Z,33.31
2023-05-05T16:38:14.735Z,33.45
2023-05-05T16:40:42.671Z,33.03
2023-05-05T16:43:10.746Z,33.11
2023-05-05T16:45:38.502Z,33.12
2023-05-05T16:48:08.916Z,32.87
2023-05-05T16:50:37.177Z,33.16
2023-05-05T16:53:05.040Z,33.39
2023-05-05T16:55:32.923Z,34.24
2023-05-05T16:58:00.769Z,34.36
2023-05-05T17:00:28.628Z,34.65
2023-05-05T17:02:56.980Z,35.27
2023-05-05T17:05:24.918Z,35.60
2023-05-05T17:07:52.788Z,36.26
2023-05-05T17:10:20.854Z,37.01
2023-05-05T17:12:48.764Z,36.97
2023-05-05T17:15:16.692Z,37.06
2023-05-05T17:17:44.549Z,37.56
2023-05-05T17:20:13.119Z,38.12
2023-05-05T17:22:41.097Z,38.39
2023-05-05T17:25:09.684Z,38.63
2023-05-05T17:27:38.300Z,38.94
2023-05-05T17:30:07.254Z,39.32
2023-05-05T17:32:35.168Z,39.94
2023-05-05T17:35:03.154Z,40.35
2023-05-05T17:37:31.336Z,40.79
2023-05-05T17:39:59.302Z,40.77
2023-05-05T17:42:27.995Z,40.78
2023-05-05T17:44:55.905Z,41.13
2023-05-05T17:47:24.311Z,41.38
2023-05-05T17:49:54.183Z,41.47
2023-05-05T17:52:23.168Z,41.95
2023-05-05T17:54:51.955Z,42.29
2023-05-05T17:57:21.263Z,42.05
2023-05-05T17:59:50.067Z,42.59
2023-05-05T18:02:19.128Z,42.88
2023-05-05T18:04:47.375Z,43.10
2023-05-05T18:07:15.413Z,43.60
2023-05-05T18:09:43.315Z,43.96
2023-05-05T18:12:11.271Z,44.06
2023-05-05T18:14:39.179Z,44.30
2023-05-05T18:17:07.098Z,44.57
2023-05-05T18:19:34.879Z,44.71
2023-05-05T18:22:02.686Z,45.08
2023-05-05T18:24:30.935Z,45.50
2023-05-05T18:26:58.849Z,45.95
2023-05-05T18:29:28.345Z,46.16
2023-05-05T18:31:56.381Z,46.72
2023-05-05T18:34:24.283Z,47.28
2023-05-05T18:36:54.768Z,47.23
2023-05-05T18:39:23.717Z,48.07
2023-05-05T18:41:51.792Z,48.33
2023-05-05T18:44:25.449Z,48.58
2023-05-05T18:46:53.299Z,48.78
2023-05-05T18:49:22.119Z,49.19
2023-05-05T18:51:49.915Z,49.45
2023-05-05T18:54:17.881Z,49.60
2023-05-05T18:56:45.746Z,49.84
2023-05-05T18:59:13.812Z,50.21
2023-05-05T19:01:43.028Z,50.61
2023-05-05T19:04:26.759Z,50.70
2023-05-05T19:07:02.052Z,51.01
2023-05-05T19:09:30.359Z,50.72
2023-05-05T19:11:58.210Z,50.54
2023-05-05T19:14:26.223Z,50.75
2023-05-05T19:16:55.855Z,51.23
2023-05-05T19:19:23.854Z,51.46
2023-05-05T19:21:51.842Z,51.67
2023-05-05T19:24:19.565Z,52.18
2023-05-05T19:26:47.303Z,52.62
2023-05-05T19:29:16.247Z,52.68
2023-05-05T19:31:44.149Z,53.01
2023-05-05T19:34:11.943Z,53.33
2023-05-05T19:36:39.773Z,53.73
2023-05-05T19:39:08.276Z,53.71
2023-05-05T19:41:36.327Z,53.77
2023-05-05T19:44:04.341Z,54.02
2023-05-05T19:46:32.124Z,54.09
2023-05-05T19:49:00.021Z,54.26
2023-05-05T19:51:27.956Z,54.47
2023-05-05T19:53:55.794Z,54.74
2023-05-05T19:56:24.006Z,55.10
2023-05-05T19:59:00.376Z,55.40
2023-05-05T20:01:29.196Z,55.43
2023-05-05T20:03:57.320Z,55.61
2023-05-05T20:06:25.673Z,55.96
2023-05-05T20:08:54.767Z,56.25
2023-05-05T20:11:22.670Z,56.22
2023-05-05T20:13:50.989Z,56.41
2023-05-05T20:16:19.344Z,56.40
2023-05-05T20:18:47.509Z,56.60
2023-05-05T20:21:16.909Z,56.57
2023-05-05T20:23:45.959Z,56.74
2023-05-05T20:26:13.984Z,57.13
2023-05-05T20:28:45.113Z,57.35
2023-05-05T20:31:14.653Z,57.83
2023-05-05T20:33:42.668Z,57.58
2023-05-05T20:36:11.216Z,57.62
2023-05-05T20:38:39.058Z,57.65
2023-05-05T20:41:07.130Z,57.82
2023-05-05T20:43:36.357Z,58.08
2023-05-05T20:46:04.304Z,58.25
2023-05-05T20:48:32.299Z,58.23
2023-05-05T20:51:03.913Z,58.41
2023-05-05T20:53:32.847Z,58.89
2023-05-05T20:56:00.957Z,58.79
2023-05-05T20:58:29.835Z,58.93
2023-05-05T21:00:57.736Z,59.31
2023-05-05T21:03:25.734Z,59.06
2023-05-05T21:05:54.367Z,58.96
2023-05-05T21:08:22.365Z,58.93
2023-05-05T21:10:50.198Z,59.05
2023-05-05T21:13:18.180Z,59.07
2023-05-05T21:15:46.331Z,59.27
2023-05-05T21:18:14.274Z,59.14
2023-05-05T21:20:42.105Z,59.43
2023-05-05T21:23:09.995Z,59.61
2023-05-05T21:25:37.866Z,59.81
2023-05-05T21:28:05.949Z,60.24
2023-05-05T21:30:33.806Z,60.27
2023-05-05T21:33:01.989Z,60.27
2023-05-05T21:35:30.059Z,60.64
2023-05-05T21:37:58.053Z,60.88
2023-05-05T21:40:26.208Z,61.04
2023-05-05T21:42:54.093Z,61.18
2023-05-05T21:45:21.984Z,61.25
2023-05-05T21:47:49.977Z,61.44
2023-05-05T21:50:17.992Z,61.57
2023-05-05T21:52:46.087Z,61.56
2023-05-05T21:55:13.943Z,61.55
2023-05-05T21:57:42.318Z,61.37
2023-05-05T22:00:16.717Z,61.50
2023-05-05T22:02:45.497Z,61.28
2023-05-05T22:05:13.504Z,61.47
2023-05-05T22:07:41.445Z,61.22
2023-05-05T22:10:09.747Z,61.36
2023-05-05T22:12:37.990Z,61.53
2023-05-05T22:15:06.787Z,61.43
2023-05-05T22:17:34.867Z,61.59
2023-05-05T22:20:05.126Z,61.54
2023-05-05T22:22:33.075Z,61.86
2023-05-05T22:25:01.081Z,62.22
2023-05-05T22:27:28.889Z,62.29
2023-05-05T22:29:57.221Z,62.26
2023-05-05T22:32:25.235Z,62.38
2023-05-05T22:34:53.144Z,62.67
2023-05-05T22:37:21.441Z,62.82
2023-05-05T22:39:49.317Z,62.88
2023-05-05T22:42:17.250Z,62.98
2023-05-05T22:44:44.998Z,63.28
2023-05-05T22:47:13.418Z,63.57
2023-05-05T22:49:41.308Z,63.73
2023-05-05T22:52:09.383Z,63.52
2023-05-05T22:54:37.147Z,63.65
2023-05-05T22:57:04.956Z,63.87
2023-05-05T22:59:32.849Z,63.91
2023-05-05T23:02:00.784Z,63.86
2023-05-05T23:04:28.728Z,64.00
2023-05-05T23:06:56.852Z,64.11
2023-05-05T23:09:24.674Z,64.30
2023-05-05T23:11:52.792Z,64.60
2023-05-05T23:14:20.731Z,64.58
2023-05-05T23:16:48.604Z,64.48
2023-05-05T23:19:16.476Z,64.48
2023-05-05T23:21:52.835Z,64.72
2023-05-05T23:24:22.266Z,65.05
2023-05-05T23:26:51.921Z,65.36
2023-05-05T23:29:20.063Z,65.71
2023-05-05T23:31:47.976Z,65.82
2023-05-05T23:34:15.780Z,66.16
2023-05-05T23:36:43.788Z,66.37
2023-05-05T23:39:11.825Z,66.59
2023-05-05T23:41:39.538Z,66.58
2023-05-05T23:44:07.344Z,66.47
2023-05-05T23:46:35.351Z,66.31
2023-05-05T23:49:03.212Z,66.43
2023-05-05T23:51:31.439Z,66.46
2023-05-05T23:53:59.575Z,66.77
2023-05-05T23:56:27.406Z,66.85
2023-05-05T23:58:55.274Z,66.90
